DWI5100 MDPC-KMIA
Flight info
| Callsign | DWI5100 |
|---|---|
| Flight time | N/A |
| Altitude | 34000 |
| Route | MALVN2T MALVN Y261 MADIZ VIICE2 |
| Aircraft | B38M/M-SDE1FGHILORVWXY/HB1 |
Departure
| Time | 2026-04-30 13:13 |
|---|---|
| Airport | Punta Cana International Airport (MDPC) |
Arrival
| Time | N/A |
|---|---|
| Airport | Miami International Airport (KMIA) |
| Time | Latitude | Longitude | Altitude | Speed | Heading |
|---|---|---|---|---|---|
| 2026-04-30 13:00 | 18.56432 | -68.36905 | 53 ft | 0 kts | 85° |
| 2026-04-30 13:03 | 18.56431 | -68.36923 | 53 ft | 4 kts | 85° |
| 2026-04-30 13:03 | 18.56428 | -68.36948 | 51 ft | 4 kts | 83° |
| 2026-04-30 13:04 | 18.56423 | -68.36976 | 53 ft | 4 kts | 70° |
| 2026-04-30 13:04 | 18.56410 | -68.36999 | 51 ft | 4 kts | 41° |
| 2026-04-30 13:04 | 18.56391 | -68.37007 | 53 ft | 1 kts | 355° |
| 2026-04-30 13:04 | 18.56368 | -68.37005 | 48 ft | 2 kts | 355° |
| 2026-04-30 13:05 | 18.56366 | -68.37005 | 48 ft | 2 kts | 355° |
| 2026-04-30 13:06 | 18.56367 | -68.37005 | 48 ft | 1 kts | 355° |
| 2026-04-30 13:07 | 18.56389 | -68.37007 | 53 ft | 5 kts | 354° |
| 2026-04-30 13:07 | 18.56437 | -68.37013 | 51 ft | 9 kts | 353° |
| 2026-04-30 13:07 | 18.56495 | -68.37050 | 51 ft | 11 kts | 283° |
| 2026-04-30 13:07 | 18.56489 | -68.37142 | 51 ft | 13 kts | 264° |
| 2026-04-30 13:08 | 18.56482 | -68.37230 | 53 ft | 11 kts | 265° |
| 2026-04-30 13:08 | 18.56475 | -68.37321 | 47 ft | 15 kts | 265° |
| 2026-04-30 13:08 | 18.56463 | -68.37441 | 53 ft | 16 kts | 263° |
| 2026-04-30 13:08 | 18.56455 | -68.37552 | 50 ft | 14 kts | 266° |
| 2026-04-30 13:09 | 18.56447 | -68.37646 | 47 ft | 13 kts | 264° |
| 2026-04-30 13:09 | 18.56450 | -68.37753 | 50 ft | 15 kts | 297° |
| 2026-04-30 13:09 | 18.56546 | -68.37790 | 53 ft | 16 kts | 358° |
| 2026-04-30 13:09 | 18.56654 | -68.37800 | 54 ft | 15 kts | 346° |
| 2026-04-30 13:10 | 18.56705 | -68.37864 | 53 ft | 11 kts | 294° |
| 2026-04-30 13:10 | 18.56737 | -68.37938 | 53 ft | 12 kts | 294° |
| 2026-04-30 13:10 | 18.56776 | -68.38022 | 51 ft | 14 kts | 294° |
| 2026-04-30 13:10 | 18.56815 | -68.38121 | 52 ft | 15 kts | 293° |
| 2026-04-30 13:11 | 18.56862 | -68.38227 | 52 ft | 16 kts | 302° |
| 2026-04-30 13:11 | 18.56943 | -68.38266 | 54 ft | 12 kts | 343° |
| 2026-04-30 13:11 | 18.57024 | -68.38272 | 51 ft | 11 kts | 33° |
| 2026-04-30 13:11 | 18.57057 | -68.38200 | 54 ft | 12 kts | 75° |
| 2026-04-30 13:12 | 18.57119 | -68.37944 | 51 ft | 72 kts | 73° |
| 2026-04-30 13:12 | 18.57338 | -68.37180 | 52 ft | 144 kts | 73° |
| 2026-04-30 13:12 | 18.57640 | -68.36019 | 411 ft | 173 kts | 78° |
| 2026-04-30 13:13 | 18.58280 | -68.33592 | 2147 ft | 183 kts | 77° |
| 2026-04-30 13:13 | 18.58642 | -68.32245 | 2781 ft | 197 kts | 75° |
| 2026-04-30 13:13 | 18.58048 | -68.29226 | 3758 ft | 245 kts | 139° |
| 2026-04-30 13:14 | 18.56508 | -68.28379 | 4574 ft | 259 kts | 158° |
| 2026-04-30 13:14 | 18.54709 | -68.27963 | 5094 ft | 272 kts | 178° |
| 2026-04-30 13:14 | 18.50930 | -68.28662 | 5726 ft | 277 kts | 194° |
| 2026-04-30 13:15 | 18.49063 | -68.29304 | 6309 ft | 291 kts | 207° |
| 2026-04-30 13:15 | 18.46916 | -68.32783 | 7911 ft | 299 kts | 265° |
| 2026-04-30 13:15 | 18.46874 | -68.34967 | 8974 ft | 299 kts | 270° |
| 2026-04-30 13:16 | 18.46907 | -68.37169 | 9891 ft | 300 kts | 269° |
| 2026-04-30 13:16 | 18.46897 | -68.39371 | 10712 ft | 304 kts | 268° |
| 2026-04-30 13:16 | 18.46854 | -68.41657 | 10898 ft | 317 kts | 268° |
| 2026-04-30 13:17 | 18.46722 | -68.46362 | 10986 ft | 323 kts | 267° |
| 2026-04-30 13:17 | 18.46643 | -68.48727 | 10996 ft | 323 kts | 267° |
| 2026-04-30 13:17 | 18.46576 | -68.53433 | 11184 ft | 326 kts | 279° |
| 2026-04-30 13:18 | 18.47351 | -68.55667 | 12116 ft | 326 kts | 299° |
| 2026-04-30 13:18 | 18.49967 | -68.59650 | 13607 ft | 333 kts | 304° |
| 2026-04-30 13:18 | 18.51329 | -68.61636 | 14293 ft | 336 kts | 304° |
| 2026-04-30 13:19 | 18.52711 | -68.63633 | 14932 ft | 339 kts | 304° |
| 2026-04-30 13:19 | 18.54114 | -68.65647 | 15582 ft | 342 kts | 303° |
| 2026-04-30 13:19 | 18.55529 | -68.67672 | 16197 ft | 345 kts | 303° |
| 2026-04-30 13:19 | 18.56961 | -68.69718 | 16812 ft | 347 kts | 303° |
| 2026-04-30 13:20 | 18.58401 | -68.71776 | 17409 ft | 350 kts | 303° |
| 2026-04-30 13:20 | 18.59852 | -68.73849 | 17999 ft | 353 kts | 303° |
| 2026-04-30 13:20 | 18.61300 | -68.75917 | 18517 ft | 356 kts | 303° |
| 2026-04-30 13:20 | 18.62774 | -68.78025 | 19000 ft | 359 kts | 302° |
| 2026-04-30 13:21 | 18.64261 | -68.80152 | 19493 ft | 361 kts | 302° |
| 2026-04-30 13:21 | 18.65757 | -68.82290 | 19965 ft | 364 kts | 302° |
| 2026-04-30 13:21 | 18.67258 | -68.84440 | 20446 ft | 366 kts | 301° |
| 2026-04-30 13:22 | 18.70303 | -68.88797 | 21397 ft | 372 kts | 302° |
| 2026-04-30 13:22 | 18.71841 | -68.91001 | 21908 ft | 373 kts | 301° |
| 2026-04-30 13:22 | 18.74944 | -68.95447 | 22833 ft | 379 kts | 301° |
| 2026-04-30 13:23 | 18.76494 | -68.97671 | 23245 ft | 382 kts | 301° |
| 2026-04-30 13:23 | 18.79657 | -69.02208 | 24135 ft | 385 kts | 301° |
| 2026-04-30 13:24 | 18.82842 | -69.06780 | 25046 ft | 387 kts | 301° |
| 2026-04-30 13:24 | 18.86035 | -69.11369 | 25929 ft | 388 kts | 301° |
| 2026-04-30 13:25 | 18.89210 | -69.15933 | 26877 ft | 388 kts | 301° |
| 2026-04-30 13:25 | 18.92429 | -69.20566 | 27600 ft | 392 kts | 301° |
| 2026-04-30 13:26 | 18.97295 | -69.27575 | 28747 ft | 396 kts | 301° |
| 2026-04-30 13:26 | 19.00561 | -69.32282 | 29491 ft | 398 kts | 301° |
| 2026-04-30 13:27 | 19.03844 | -69.37019 | 30179 ft | 401 kts | 301° |
| 2026-04-30 13:28 | 19.08822 | -69.44209 | 30974 ft | 406 kts | 301° |
| 2026-04-30 13:28 | 19.12181 | -69.49064 | 31651 ft | 411 kts | 300° |
| 2026-04-30 13:28 | 19.13851 | -69.51480 | 31983 ft | 412 kts | 300° |
| 2026-04-30 13:29 | 19.17264 | -69.56419 | 32479 ft | 416 kts | 300° |
| 2026-04-30 13:29 | 19.20670 | -69.61352 | 33189 ft | 414 kts | 299° |
| 2026-04-30 13:30 | 19.25749 | -69.68715 | 34241 ft | 411 kts | 299° |
| 2026-04-30 13:31 | 19.29112 | -69.73596 | 34789 ft | 410 kts | 298° |
| 2026-04-30 13:31 | 19.34130 | -69.80885 | 35540 ft | 409 kts | 298° |
| 2026-04-30 13:32 | 19.37481 | -69.85758 | 35961 ft | 409 kts | 298° |
| 2026-04-30 13:33 | 19.44162 | -69.95485 | 35992 ft | 407 kts | 298° |
| 2026-04-30 13:34 | 19.49155 | -70.02764 | 35992 ft | 407 kts | 298° |
| 2026-04-30 13:35 | 19.55779 | -70.12436 | 35991 ft | 407 kts | 298° |
| 2026-04-30 13:36 | 19.62241 | -70.21886 | 35998 ft | 406 kts | 298° |
| 2026-04-30 13:36 | 19.67203 | -70.29150 | 35993 ft | 406 kts | 298° |
| 2026-04-30 13:37 | 19.72172 | -70.36435 | 35995 ft | 406 kts | 298° |
| 2026-04-30 13:38 | 19.77141 | -70.43729 | 35992 ft | 406 kts | 298° |
| 2026-04-30 13:39 | 19.83739 | -70.53428 | 35997 ft | 406 kts | 298° |
| 2026-04-30 13:40 | 19.88698 | -70.60728 | 35999 ft | 406 kts | 298° |
| 2026-04-30 13:40 | 19.91997 | -70.65588 | 35997 ft | 406 kts | 298° |
| 2026-04-30 13:41 | 19.95278 | -70.70428 | 35998 ft | 406 kts | 298° |
| 2026-04-30 13:41 | 19.98576 | -70.75296 | 36006 ft | 406 kts | 298° |
| 2026-04-30 13:42 | 20.01875 | -70.80168 | 35999 ft | 406 kts | 299° |
| 2026-04-30 13:42 | 20.06827 | -70.87491 | 36010 ft | 406 kts | 299° |
| 2026-04-30 13:43 | 20.10106 | -70.92346 | 36008 ft | 407 kts | 299° |
| 2026-04-30 13:43 | 20.13410 | -70.97239 | 36007 ft | 407 kts | 299° |
| 2026-04-30 13:44 | 20.16711 | -71.02134 | 36008 ft | 407 kts | 299° |
| 2026-04-30 13:44 | 20.20020 | -71.07045 | 36009 ft | 408 kts | 299° |
| 2026-04-30 13:45 | 20.24983 | -71.14415 | 36012 ft | 408 kts | 299° |
| 2026-04-30 13:46 | 20.28294 | -71.19339 | 36014 ft | 409 kts | 300° |
| 2026-04-30 13:46 | 20.31590 | -71.24242 | 36009 ft | 409 kts | 300° |
| 2026-04-30 13:47 | 20.34905 | -71.29179 | 36013 ft | 410 kts | 300° |
| 2026-04-30 13:47 | 20.38223 | -71.34123 | 36012 ft | 410 kts | 300° |
| 2026-04-30 13:48 | 20.41525 | -71.39084 | 36012 ft | 410 kts | 298° |
| 2026-04-30 13:48 | 20.44697 | -71.44147 | 36014 ft | 410 kts | 298° |
| 2026-04-30 13:49 | 20.47886 | -71.49212 | 36014 ft | 411 kts | 298° |
| 2026-04-30 13:49 | 20.50543 | -71.53431 | 36015 ft | 412 kts | 298° |
| 2026-04-30 13:50 | 20.53740 | -71.58511 | 36019 ft | 412 kts | 299° |
| 2026-04-30 13:50 | 20.58524 | -71.66121 | 36019 ft | 413 kts | 299° |
| 2026-04-30 13:51 | 20.61727 | -71.71222 | 36018 ft | 414 kts | 299° |
| 2026-04-30 13:51 | 20.64935 | -71.76334 | 36020 ft | 415 kts | 299° |
| 2026-04-30 13:52 | 20.68149 | -71.81463 | 36018 ft | 415 kts | 299° |
| 2026-04-30 13:52 | 20.71365 | -71.86598 | 36022 ft | 416 kts | 300° |
| 2026-04-30 13:53 | 20.74582 | -71.91739 | 36024 ft | 416 kts | 300° |
| 2026-04-30 13:53 | 20.77782 | -71.96858 | 36016 ft | 417 kts | 300° |
| 2026-04-30 13:54 | 20.81012 | -72.02030 | 36019 ft | 417 kts | 300° |
| 2026-04-30 13:54 | 20.84236 | -72.07196 | 36024 ft | 418 kts | 300° |
| 2026-04-30 13:55 | 20.87446 | -72.12345 | 36016 ft | 418 kts | 300° |
| 2026-04-30 13:55 | 20.90691 | -72.17555 | 36013 ft | 418 kts | 300° |
| 2026-04-30 13:56 | 20.93914 | -72.22733 | 36017 ft | 418 kts | 300° |
| 2026-04-30 13:56 | 20.97113 | -72.27879 | 36022 ft | 418 kts | 300° |
| 2026-04-30 13:57 | 21.00340 | -72.33074 | 36023 ft | 418 kts | 300° |
| 2026-04-30 13:57 | 21.03565 | -72.38272 | 36018 ft | 419 kts | 300° |
| 2026-04-30 13:58 | 21.08378 | -72.46036 | 36022 ft | 418 kts | 300° |
| 2026-04-30 13:59 | 21.11618 | -72.51267 | 36017 ft | 418 kts | 300° |
| 2026-04-30 13:59 | 21.14808 | -72.56423 | 36018 ft | 418 kts | 300° |
| 2026-04-30 14:00 | 21.18021 | -72.61626 | 36023 ft | 418 kts | 300° |
| 2026-04-30 14:00 | 21.22836 | -72.69434 | 36015 ft | 418 kts | 300° |
| 2026-04-30 14:01 | 21.26043 | -72.74642 | 36021 ft | 418 kts | 300° |
| 2026-04-30 14:01 | 21.29248 | -72.79848 | 36014 ft | 418 kts | 300° |
| 2026-04-30 14:02 | 21.32454 | -72.85064 | 36014 ft | 418 kts | 300° |
| 2026-04-30 14:02 | 21.35657 | -72.90279 | 36014 ft | 418 kts | 300° |
| 2026-04-30 14:03 | 21.38839 | -72.95463 | 36014 ft | 419 kts | 300° |
| 2026-04-30 14:03 | 21.42041 | -73.00687 | 36016 ft | 418 kts | 300° |
| 2026-04-30 14:04 | 21.45239 | -73.05907 | 36025 ft | 419 kts | 300° |
| 2026-04-30 14:04 | 21.48435 | -73.11129 | 36016 ft | 419 kts | 300° |
| 2026-04-30 14:05 | 21.51633 | -73.16360 | 36020 ft | 419 kts | 300° |
| 2026-04-30 14:05 | 21.54828 | -73.21593 | 36017 ft | 419 kts | 300° |
| 2026-04-30 14:06 | 21.59630 | -73.29463 | 36019 ft | 420 kts | 300° |
| 2026-04-30 14:07 | 21.64433 | -73.37347 | 36022 ft | 420 kts | 300° |
| 2026-04-30 14:08 | 21.69206 | -73.45194 | 36021 ft | 420 kts | 300° |
| 2026-04-30 14:08 | 21.74002 | -73.53091 | 36018 ft | 420 kts | 300° |
| 2026-04-30 14:09 | 21.77196 | -73.58355 | 36018 ft | 421 kts | 300° |
| 2026-04-30 14:10 | 21.81994 | -73.66273 | 36019 ft | 421 kts | 300° |
| 2026-04-30 14:10 | 21.85186 | -73.71547 | 36019 ft | 421 kts | 300° |
| 2026-04-30 14:11 | 21.88383 | -73.76834 | 36021 ft | 421 kts | 300° |
| 2026-04-30 14:11 | 21.91577 | -73.82121 | 36018 ft | 421 kts | 300° |
| 2026-04-30 14:12 | 21.94753 | -73.87385 | 36019 ft | 421 kts | 300° |
| 2026-04-30 14:12 | 21.97948 | -73.92685 | 36019 ft | 422 kts | 300° |
| 2026-04-30 14:13 | 22.01143 | -73.97990 | 36019 ft | 422 kts | 300° |
| 2026-04-30 14:13 | 22.04341 | -74.03305 | 36020 ft | 422 kts | 300° |
| 2026-04-30 14:14 | 22.07537 | -74.08622 | 36020 ft | 422 kts | 301° |
| 2026-04-30 14:14 | 22.10733 | -74.13944 | 36018 ft | 423 kts | 301° |
| 2026-04-30 14:15 | 22.13927 | -74.19269 | 36017 ft | 423 kts | 301° |
| 2026-04-30 14:15 | 22.17126 | -74.24606 | 36018 ft | 424 kts | 301° |
| 2026-04-30 14:16 | 22.20305 | -74.29917 | 36021 ft | 424 kts | 301° |
| 2026-04-30 14:16 | 22.23510 | -74.35274 | 36019 ft | 425 kts | 301° |
| 2026-04-30 14:17 | 22.26715 | -74.40638 | 36019 ft | 425 kts | 301° |
| 2026-04-30 14:17 | 22.29902 | -74.45978 | 36021 ft | 425 kts | 301° |
| 2026-04-30 14:18 | 22.33106 | -74.51352 | 36017 ft | 426 kts | 301° |
| 2026-04-30 14:18 | 22.37916 | -74.59428 | 36019 ft | 426 kts | 301° |
| 2026-04-30 14:19 | 22.42729 | -74.67522 | 36022 ft | 426 kts | 301° |
| 2026-04-30 14:20 | 22.45937 | -74.72925 | 36016 ft | 427 kts | 301° |
| 2026-04-30 14:20 | 22.50724 | -74.80995 | 36016 ft | 427 kts | 301° |
| 2026-04-30 14:21 | 22.53937 | -74.86419 | 36017 ft | 428 kts | 301° |
| 2026-04-30 14:22 | 22.58759 | -74.94569 | 36011 ft | 428 kts | 301° |
| 2026-04-30 14:22 | 22.63562 | -75.02700 | 36016 ft | 429 kts | 301° |
| 2026-04-30 14:23 | 22.69990 | -75.13604 | 36014 ft | 430 kts | 302° |
| 2026-04-30 14:24 | 22.74819 | -75.21808 | 36011 ft | 431 kts | 302° |
| 2026-04-30 14:25 | 22.81247 | -75.32751 | 36015 ft | 432 kts | 302° |
| 2026-04-30 14:26 | 22.86083 | -75.40999 | 36018 ft | 433 kts | 302° |
| 2026-04-30 14:27 | 22.90928 | -75.49274 | 36022 ft | 433 kts | 302° |
| 2026-04-30 14:27 | 22.94160 | -75.54802 | 36021 ft | 434 kts | 302° |
| 2026-04-30 14:28 | 22.99001 | -75.63093 | 36016 ft | 434 kts | 302° |
| 2026-04-30 14:28 | 23.02236 | -75.68641 | 36014 ft | 435 kts | 302° |
| 2026-04-30 14:29 | 23.08159 | -75.78815 | 36017 ft | 435 kts | 303° |
| 2026-04-30 14:31 | 23.16778 | -75.93656 | 36017 ft | 436 kts | 303° |
| 2026-04-30 14:31 | 23.21634 | -76.02036 | 36018 ft | 437 kts | 303° |
| 2026-04-30 14:32 | 23.26132 | -76.09811 | 36021 ft | 437 kts | 303° |
| 2026-04-30 14:33 | 23.29371 | -76.15416 | 36020 ft | 438 kts | 303° |
| 2026-04-30 14:33 | 23.34227 | -76.23833 | 36014 ft | 438 kts | 303° |
| 2026-04-30 14:34 | 23.37448 | -76.29423 | 36017 ft | 438 kts | 303° |
| 2026-04-30 14:34 | 23.40687 | -76.35051 | 36017 ft | 438 kts | 303° |
| 2026-04-30 14:35 | 23.45369 | -76.43197 | 36018 ft | 439 kts | 303° |
| 2026-04-30 14:36 | 23.48604 | -76.48833 | 36017 ft | 439 kts | 303° |
| 2026-04-30 14:36 | 23.51818 | -76.54438 | 36014 ft | 439 kts | 303° |
| 2026-04-30 14:37 | 23.55053 | -76.60086 | 36015 ft | 439 kts | 303° |
| 2026-04-30 14:37 | 23.58284 | -76.65735 | 36015 ft | 439 kts | 303° |
| 2026-04-30 14:38 | 23.61519 | -76.71395 | 36012 ft | 440 kts | 303° |
| 2026-04-30 14:38 | 23.64228 | -76.76143 | 36012 ft | 440 kts | 303° |
| 2026-04-30 14:39 | 23.67436 | -76.81767 | 36011 ft | 440 kts | 303° |
| 2026-04-30 14:39 | 23.70666 | -76.87436 | 36012 ft | 440 kts | 303° |
| 2026-04-30 14:40 | 23.75511 | -76.95956 | 36011 ft | 440 kts | 303° |
| 2026-04-30 14:40 | 23.78742 | -77.01644 | 36012 ft | 440 kts | 303° |
| 2026-04-30 14:41 | 23.81945 | -77.07290 | 36011 ft | 440 kts | 303° |
| 2026-04-30 14:41 | 23.85168 | -77.12977 | 36013 ft | 440 kts | 303° |
| 2026-04-30 14:42 | 23.88387 | -77.18664 | 36011 ft | 440 kts | 303° |
| 2026-04-30 14:42 | 23.91599 | -77.24344 | 36012 ft | 440 kts | 303° |
| 2026-04-30 14:43 | 23.94810 | -77.30031 | 36012 ft | 439 kts | 303° |
| 2026-04-30 14:43 | 23.98025 | -77.35730 | 36011 ft | 439 kts | 303° |
| 2026-04-30 14:44 | 24.01231 | -77.41417 | 36013 ft | 439 kts | 303° |
| 2026-04-30 14:44 | 24.04436 | -77.47110 | 36012 ft | 439 kts | 303° |
| 2026-04-30 14:45 | 24.07614 | -77.52761 | 36011 ft | 439 kts | 303° |
| 2026-04-30 14:45 | 24.10695 | -77.58245 | 36010 ft | 438 kts | 303° |
| 2026-04-30 14:46 | 24.13783 | -77.63749 | 36011 ft | 438 kts | 303° |
| 2026-04-30 14:46 | 24.16787 | -77.69109 | 36014 ft | 438 kts | 303° |
| 2026-04-30 14:47 | 24.19769 | -77.74435 | 36010 ft | 438 kts | 303° |
| 2026-04-30 14:47 | 24.22769 | -77.79798 | 36011 ft | 438 kts | 303° |
| 2026-04-30 14:48 | 24.25826 | -77.85272 | 36009 ft | 438 kts | 302° |
| 2026-04-30 14:48 | 24.29196 | -77.90820 | 36009 ft | 437 kts | 305° |
| 2026-04-30 14:49 | 24.32590 | -77.96342 | 36030 ft | 438 kts | 305° |
| 2026-04-30 14:49 | 24.35972 | -78.01854 | 36035 ft | 437 kts | 305° |
| 2026-04-30 14:50 | 24.41094 | -78.10212 | 35979 ft | 435 kts | 304° |
| 2026-04-30 14:51 | 24.46137 | -78.18455 | 36011 ft | 434 kts | 304° |
| 2026-04-30 14:52 | 24.51161 | -78.26683 | 35865 ft | 425 kts | 304° |
| 2026-04-30 14:52 | 24.54343 | -78.31900 | 35417 ft | 414 kts | 304° |
| 2026-04-30 14:52 | 24.55941 | -78.34522 | 35187 ft | 412 kts | 304° |
| 2026-04-30 14:53 | 24.59100 | -78.39710 | 34442 ft | 407 kts | 304° |
| 2026-04-30 14:53 | 24.60682 | -78.42310 | 33805 ft | 408 kts | 304° |
| 2026-04-30 14:54 | 24.63801 | -78.47441 | 32763 ft | 403 kts | 304° |
| 2026-04-30 14:54 | 24.66890 | -78.52528 | 31849 ft | 397 kts | 304° |
| 2026-04-30 14:55 | 24.69946 | -78.57565 | 30906 ft | 392 kts | 304° |
| 2026-04-30 14:55 | 24.71455 | -78.60056 | 30440 ft | 390 kts | 304° |
| 2026-04-30 14:55 | 24.74458 | -78.65013 | 29426 ft | 387 kts | 304° |
| 2026-04-30 14:56 | 24.77413 | -78.69895 | 28495 ft | 381 kts | 304° |
| 2026-04-30 14:56 | 24.80314 | -78.74691 | 27569 ft | 376 kts | 304° |
| 2026-04-30 14:57 | 24.81773 | -78.77101 | 27160 ft | 372 kts | 304° |
| 2026-04-30 14:57 | 24.84598 | -78.81774 | 26345 ft | 365 kts | 304° |
| 2026-04-30 14:58 | 24.87395 | -78.86405 | 25516 ft | 360 kts | 304° |
| 2026-04-30 14:58 | 24.88778 | -78.88695 | 25118 ft | 358 kts | 304° |
| 2026-04-30 14:58 | 24.91517 | -78.93237 | 24314 ft | 354 kts | 304° |
| 2026-04-30 14:59 | 24.94230 | -78.97739 | 23501 ft | 351 kts | 304° |
| 2026-04-30 15:00 | 24.98237 | -79.04396 | 22221 ft | 342 kts | 304° |
| 2026-04-30 15:00 | 25.00826 | -79.08703 | 21456 ft | 336 kts | 303° |
| 2026-04-30 15:01 | 25.03382 | -79.12958 | 20632 ft | 332 kts | 303° |
| 2026-04-30 15:01 | 25.04242 | -79.14391 | 20353 ft | 331 kts | 303° |
| 2026-04-30 15:01 | 25.07182 | -79.19292 | 19400 ft | 328 kts | 303° |
| 2026-04-30 15:02 | 25.08438 | -79.21387 | 18982 ft | 327 kts | 303° |
| 2026-04-30 15:02 | 25.09691 | -79.23479 | 18557 ft | 326 kts | 303° |
| 2026-04-30 15:03 | 25.13423 | -79.29712 | 17218 ft | 321 kts | 303° |
| 2026-04-30 15:03 | 25.15851 | -79.33772 | 16394 ft | 316 kts | 303° |
| 2026-04-30 15:04 | 25.18258 | -79.37799 | 15590 ft | 311 kts | 303° |
| 2026-04-30 15:04 | 25.21765 | -79.43676 | 14936 ft | 306 kts | 303° |
| 2026-04-30 15:05 | 25.25458 | -79.49871 | 14696 ft | 331 kts | 303° |
| 2026-04-30 15:06 | 25.27988 | -79.54121 | 14575 ft | 331 kts | 303° |
| 2026-04-30 15:06 | 25.30512 | -79.58362 | 14440 ft | 325 kts | 303° |
| 2026-04-30 15:07 | 25.32883 | -79.62354 | 14361 ft | 296 kts | 303° |
| 2026-04-30 15:07 | 25.35037 | -79.65979 | 14243 ft | 268 kts | 303° |
| 2026-04-30 15:08 | 25.37054 | -79.69378 | 14071 ft | 266 kts | 303° |
| 2026-04-30 15:08 | 25.40893 | -79.74049 | 11606 ft | 322 kts | 324° |
| 2026-04-30 15:09 | 25.45010 | -79.77241 | 8638 ft | 381 kts | 324° |
| 2026-04-30 15:09 | 25.49220 | -79.80533 | 7774 ft | 350 kts | 324° |
| 2026-04-30 15:10 | 25.52978 | -79.83479 | 7012 ft | 314 kts | 323° |
| 2026-04-30 15:11 | 25.58907 | -79.89245 | 5534 ft | 262 kts | 297° |
| 2026-04-30 15:11 | 25.60622 | -79.92624 | 4951 ft | 241 kts | 298° |
| 2026-04-30 15:12 | 25.63049 | -79.97340 | 4102 ft | 232 kts | 298° |
| 2026-04-30 15:13 | 25.64634 | -80.00416 | 3552 ft | 227 kts | 298° |
| 2026-04-30 15:14 | 25.67601 | -80.06153 | 2991 ft | 196 kts | 298° |
| 2026-04-30 15:14 | 25.69637 | -80.10106 | 3014 ft | 198 kts | 298° |
| 2026-04-30 15:16 | 25.73080 | -80.16831 | 2236 ft | 204 kts | 298° |
| 2026-04-30 15:17 | 25.75580 | -80.21726 | 1313 ft | 154 kts | 297° |
| 2026-04-30 15:18 | 25.78264 | -80.26952 | 264 ft | 158 kts | 299° |
| 2026-04-30 15:19 | 25.79663 | -80.29710 | 18 ft | 88 kts | 299° |